sensor_id;sensor_type;location;lat;lon;timestamp;P1;durP1;ratioP1;P2;durP2;ratioP2
3293;SDS011;1659;51.470;6.770;2022-08-04T00:01:09;6.90;;;3.43;;
3293;SDS011;1659;51.470;6.770;2022-08-04T00:03:47;7.33;;;3.10;;
3293;SDS011;1659;51.470;6.770;2022-08-04T00:06:22;7.27;;;3.07;;
3293;SDS011;1659;51.470;6.770;2022-08-04T00:08:59;5.30;;;2.90;;
3293;SDS011;1659;51.470;6.770;2022-08-04T00:11:31;8.20;;;3.17;;
3293;SDS011;1659;51.470;6.770;2022-08-04T00:14:00;6.43;;;3.30;;
3293;SDS011;1659;51.470;6.770;2022-08-04T00:16:32;7.60;;;3.57;;
3293;SDS011;1659;51.470;6.770;2022-08-04T00:19:02;4.10;;;3.17;;
3293;SDS011;1659;51.470;6.770;2022-08-04T00:21:30;6.30;;;3.30;;
3293;SDS011;1659;51.470;6.770;2022-08-04T00:24:01;10.80;;;3.13;;
3293;SDS011;1659;51.470;6.770;2022-08-04T00:26:28;8.23;;;3.40;;
3293;SDS011;1659;51.470;6.770;2022-08-04T00:28:55;5.03;;;3.30;;
3293;SDS011;1659;51.470;6.770;2022-08-04T00:31:22;6.90;;;3.27;;
3293;SDS011;1659;51.470;6.770;2022-08-04T00:33:51;12.40;;;3.70;;
3293;SDS011;1659;51.470;6.770;2022-08-04T00:36:18;9.17;;;2.97;;
3293;SDS011;1659;51.470;6.770;2022-08-04T00:38:46;9.17;;;3.30;;
3293;SDS011;1659;51.470;6.770;2022-08-04T00:41:16;10.27;;;3.13;;
3293;SDS011;1659;51.470;6.770;2022-08-04T00:43:55;14.87;;;3.73;;
3293;SDS011;1659;51.470;6.770;2022-08-04T00:46:41;8.77;;;3.63;;
3293;SDS011;1659;51.470;6.770;2022-08-04T00:49:25;8.00;;;3.20;;
3293;SDS011;1659;51.470;6.770;2022-08-04T00:52:10;7.83;;;3.13;;
3293;SDS011;1659;51.470;6.770;2022-08-04T00:54:53;6.37;;;3.20;;
3293;SDS011;1659;51.470;6.770;2022-08-04T00:57:30;7.40;;;3.20;;
3293;SDS011;1659;51.470;6.770;2022-08-04T01:00:14;17.00;;;3.70;;
3293;SDS011;1659;51.470;6.770;2022-08-04T01:02:45;10.30;;;3.30;;
3293;SDS011;1659;51.470;6.770;2022-08-04T01:05:27;7.30;;;3.07;;
3293;SDS011;1659;51.470;6.770;2022-08-04T01:08:04;8.30;;;3.00;;
3293;SDS011;1659;51.470;6.770;2022-08-04T01:10:45;8.60;;;3.37;;
3293;SDS011;1659;51.470;6.770;2022-08-04T01:13:25;5.40;;;2.80;;
3293;SDS011;1659;51.470;6.770;2022-08-04T01:16:17;8.03;;;2.80;;
3293;SDS011;1659;51.470;6.770;2022-08-04T01:18:52;4.03;;;2.63;;
3293;SDS011;1659;51.470;6.770;2022-08-04T01:21:36;9.47;;;2.90;;
3293;SDS011;1659;51.470;6.770;2022-08-04T01:24:25;6.47;;;3.47;;
3293;SDS011;1659;51.470;6.770;2022-08-04T01:27:03;9.97;;;3.07;;
3293;SDS011;1659;51.470;6.770;2022-08-04T01:29:37;4.63;;;3.50;;
3293;SDS011;1659;51.470;6.770;2022-08-04T01:32:10;6.90;;;3.53;;
3293;SDS011;1659;51.470;6.770;2022-08-04T01:34:48;10.93;;;3.67;;
3293;SDS011;1659;51.470;6.770;2022-08-04T01:37:20;8.03;;;3.37;;
3293;SDS011;1659;51.470;6.770;2022-08-04T01:39:59;7.00;;;3.03;;
3293;SDS011;1659;51.470;6.770;2022-08-04T01:42:30;5.87;;;3.50;;
3293;SDS011;1659;51.470;6.770;2022-08-04T01:45:01;6.90;;;3.37;;
3293;SDS011;1659;51.470;6.770;2022-08-04T01:47:31;10.50;;;4.40;;
3293;SDS011;1659;51.470;6.770;2022-08-04T01:50:01;10.40;;;3.20;;
3293;SDS011;1659;51.470;6.770;2022-08-04T01:52:31;11.70;;;4.10;;
3293;SDS011;1659;51.470;6.770;2022-08-04T01:55:00;6.17;;;3.43;;
3293;SDS011;1659;51.470;6.770;2022-08-04T01:57:28;22.33;;;4.70;;
3293;SDS011;1659;51.470;6.770;2022-08-04T01:59:58;14.30;;;3.30;;
3293;SDS011;1659;51.470;6.770;2022-08-04T02:02:27;7.60;;;3.90;;
3293;SDS011;1659;51.470;6.770;2022-08-04T02:04:54;5.40;;;3.33;;
3293;SDS011;1659;51.470;6.770;2022-08-04T02:07:29;12.00;;;4.20;;
3293;SDS011;1659;51.470;6.770;2022-08-04T02:10:06;8.73;;;3.97;;
3293;SDS011;1659;51.470;6.770;2022-08-04T02:12:42;7.33;;;3.23;;
3293;SDS011;1659;51.470;6.770;2022-08-04T02:15:24;8.57;;;3.40;;
3293;SDS011;1659;51.470;6.770;2022-08-04T02:18:01;8.23;;;3.77;;
3293;SDS011;1659;51.470;6.770;2022-08-04T02:20:31;8.17;;;3.47;;
3293;SDS011;1659;51.470;6.770;2022-08-04T02:23:00;8.63;;;4.40;;
3293;SDS011;1659;51.470;6.770;2022-08-04T02:25:33;8.97;;;4.10;;
3293;SDS011;1659;51.470;6.770;2022-08-04T02:30:55;6.63;;;3.90;;
3293;SDS011;1659;51.470;6.770;2022-08-04T02:33:32;7.13;;;3.87;;
3293;SDS011;1659;51.470;6.770;2022-08-04T02:36:02;7.13;;;3.90;;
3293;SDS011;1659;51.470;6.770;2022-08-04T02:38:34;13.57;;;5.03;;
3293;SDS011;1659;51.470;6.770;2022-08-04T02:41:16;12.60;;;3.83;;
3293;SDS011;1659;51.470;6.770;2022-08-04T02:43:46;8.10;;;3.90;;
3293;SDS011;1659;51.470;6.770;2022-08-04T02:46:14;11.57;;;4.73;;
3293;SDS011;1659;51.470;6.770;2022-08-04T02:48:44;10.53;;;4.03;;
3293;SDS011;1659;51.470;6.770;2022-08-04T02:51:14;10.10;;;4.13;;
3293;SDS011;1659;51.470;6.770;2022-08-04T02:53:47;6.23;;;3.80;;
3293;SDS011;1659;51.470;6.770;2022-08-04T02:56:18;7.83;;;4.60;;
3293;SDS011;1659;51.470;6.770;2022-08-04T02:58:45;8.47;;;3.90;;
3293;SDS011;1659;51.470;6.770;2022-08-04T03:01:17;6.30;;;3.73;;
3293;SDS011;1659;51.470;6.770;2022-08-04T03:03:47;10.13;;;3.60;;
3293;SDS011;1659;51.470;6.770;2022-08-04T03:06:39;8.20;;;4.30;;
3293;SDS011;1659;51.470;6.770;2022-08-04T03:09:54;5.90;;;3.40;;
3293;SDS011;1659;51.470;6.770;2022-08-04T03:12:49;7.63;;;4.13;;
3293;SDS011;1659;51.470;6.770;2022-08-04T03:18:53;5.93;;;4.03;;
3293;SDS011;1659;51.470;6.770;2022-08-04T03:21:59;10.60;;;4.60;;
3293;SDS011;1659;51.470;6.770;2022-08-04T03:27:59;11.83;;;3.77;;
3293;SDS011;1659;51.470;6.770;2022-08-04T03:30:52;11.70;;;4.07;;
3293;SDS011;1659;51.470;6.770;2022-08-04T03:33:39;10.67;;;4.50;;
3293;SDS011;1659;51.470;6.770;2022-08-04T03:36:25;13.50;;;4.10;;
3293;SDS011;1659;51.470;6.770;2022-08-04T03:42:31;9.50;;;4.10;;
3293;SDS011;1659;51.470;6.770;2022-08-04T03:45:12;11.97;;;4.33;;
3293;SDS011;1659;51.470;6.770;2022-08-04T03:48:08;19.17;;;4.20;;
3293;SDS011;1659;51.470;6.770;2022-08-04T03:51:06;11.90;;;4.67;;
3293;SDS011;1659;51.470;6.770;2022-08-04T03:57:21;10.70;;;4.00;;
3293;SDS011;1659;51.470;6.770;2022-08-04T04:00:06;10.13;;;4.37;;
3293;SDS011;1659;51.470;6.770;2022-08-04T04:05:54;15.73;;;3.47;;
3293;SDS011;1659;51.470;6.770;2022-08-04T04:08:40;12.20;;;4.13;;
3293;SDS011;1659;51.470;6.770;2022-08-04T04:11:40;10.70;;;4.40;;
3293;SDS011;1659;51.470;6.770;2022-08-04T04:14:22;10.93;;;4.10;;
3293;SDS011;1659;51.470;6.770;2022-08-04T04:17:03;6.13;;;4.23;;
3293;SDS011;1659;51.470;6.770;2022-08-04T04:19:50;16.50;;;4.03;;
3293;SDS011;1659;51.470;6.770;2022-08-04T04:22:37;8.10;;;3.97;;
3293;SDS011;1659;51.470;6.770;2022-08-04T04:25:33;9.40;;;4.00;;
3293;SDS011;1659;51.470;6.770;2022-08-04T04:28:24;8.80;;;4.33;;
3293;SDS011;1659;51.470;6.770;2022-08-04T04:31:01;4.53;;;3.80;;
3293;SDS011;1659;51.470;6.770;2022-08-04T04:33:42;7.87;;;3.90;;
3293;SDS011;1659;51.470;6.770;2022-08-04T04:36:24;12.50;;;4.57;;
3293;SDS011;1659;51.470;6.770;2022-08-04T04:39:00;9.70;;;4.33;;
3293;SDS011;1659;51.470;6.770;2022-08-04T04:41:44;13.77;;;4.40;;
3293;SDS011;1659;51.470;6.770;2022-08-04T04:44:45;4.97;;;4.23;;
3293;SDS011;1659;51.470;6.770;2022-08-04T04:47:31;13.73;;;6.10;;
3293;SDS011;1659;51.470;6.770;2022-08-04T04:50:07;15.47;;;4.30;;
3293;SDS011;1659;51.470;6.770;2022-08-04T04:52:39;14.03;;;5.30;;
3293;SDS011;1659;51.470;6.770;2022-08-04T04:55:12;5.90;;;4.13;;
3293;SDS011;1659;51.470;6.770;2022-08-04T04:57:44;18.87;;;5.93;;
3293;SDS011;1659;51.470;6.770;2022-08-04T05:00:15;7.97;;;4.37;;
3293;SDS011;1659;51.470;6.770;2022-08-04T05:02:47;9.27;;;4.90;;
3293;SDS011;1659;51.470;6.770;2022-08-04T05:08:37;11.87;;;4.93;;
3293;SDS011;1659;51.470;6.770;2022-08-04T05:11:23;14.10;;;4.77;;
3293;SDS011;1659;51.470;6.770;2022-08-04T05:14:12;12.57;;;4.37;;
3293;SDS011;1659;51.470;6.770;2022-08-04T05:16:45;15.23;;;4.90;;
3293;SDS011;1659;51.470;6.770;2022-08-04T05:19:18;6.80;;;4.00;;
3293;SDS011;1659;51.470;6.770;2022-08-04T05:21:55;22.33;;;6.70;;
3293;SDS011;1659;51.470;6.770;2022-08-04T05:24:26;11.97;;;4.80;;
3293;SDS011;1659;51.470;6.770;2022-08-04T05:26:58;16.83;;;5.50;;
3293;SDS011;1659;51.470;6.770;2022-08-04T05:29:30;43.83;;;8.90;;
3293;SDS011;1659;51.470;6.770;2022-08-04T05:32:03;29.33;;;7.50;;
3293;SDS011;1659;51.470;6.770;2022-08-04T05:34:34;21.03;;;6.20;;
3293;SDS011;1659;51.470;6.770;2022-08-04T05:37:07;19.50;;;5.23;;
3293;SDS011;1659;51.470;6.770;2022-08-04T05:39:37;19.03;;;6.50;;
3293;SDS011;1659;51.470;6.770;2022-08-04T05:42:08;23.63;;;6.70;;
3293;SDS011;1659;51.470;6.770;2022-08-04T05:44:36;17.23;;;5.70;;
3293;SDS011;1659;51.470;6.770;2022-08-04T05:47:05;21.13;;;7.10;;
3293;SDS011;1659;51.470;6.770;2022-08-04T05:49:33;20.40;;;6.53;;
3293;SDS011;1659;51.470;6.770;2022-08-04T05:52:01;13.37;;;5.67;;
3293;SDS011;1659;51.470;6.770;2022-08-04T05:54:30;20.30;;;7.30;;
3293;SDS011;1659;51.470;6.770;2022-08-04T05:56:58;13.53;;;7.33;;
3293;SDS011;1659;51.470;6.770;2022-08-04T05:59:28;12.50;;;5.03;;
3293;SDS011;1659;51.470;6.770;2022-08-04T06:01:57;15.20;;;5.00;;
3293;SDS011;1659;51.470;6.770;2022-08-04T06:04:30;7.90;;;4.30;;
3293;SDS011;1659;51.470;6.770;2022-08-04T06:06:58;4.17;;;3.77;;
3293;SDS011;1659;51.470;6.770;2022-08-04T06:09:24;7.90;;;5.00;;
3293;SDS011;1659;51.470;6.770;2022-08-04T06:11:51;9.83;;;4.67;;
3293;SDS011;1659;51.470;6.770;2022-08-04T06:14:19;19.23;;;4.60;;
3293;SDS011;1659;51.470;6.770;2022-08-04T06:16:49;10.47;;;4.20;;
3293;SDS011;1659;51.470;6.770;2022-08-04T06:19:17;6.70;;;4.13;;
3293;SDS011;1659;51.470;6.770;2022-08-04T06:21:48;6.00;;;3.80;;
3293;SDS011;1659;51.470;6.770;2022-08-04T06:24:18;5.03;;;3.60;;
3293;SDS011;1659;51.470;6.770;2022-08-04T06:26:49;10.60;;;4.80;;
3293;SDS011;1659;51.470;6.770;2022-08-04T06:29:17;7.87;;;4.50;;
3293;SDS011;1659;51.470;6.770;2022-08-04T06:31:48;10.00;;;4.97;;
3293;SDS011;1659;51.470;6.770;2022-08-04T06:34:23;6.47;;;4.50;;
3293;SDS011;1659;51.470;6.770;2022-08-04T06:36:53;6.30;;;4.70;;
3293;SDS011;1659;51.470;6.770;2022-08-04T06:39:20;10.10;;;5.10;;
3293;SDS011;1659;51.470;6.770;2022-08-04T06:41:49;12.93;;;4.50;;
3293;SDS011;1659;51.470;6.770;2022-08-04T06:44:17;9.03;;;4.67;;
3293;SDS011;1659;51.470;6.770;2022-08-04T06:46:45;9.03;;;5.77;;
3293;SDS011;1659;51.470;6.770;2022-08-04T06:49:12;6.40;;;4.30;;
3293;SDS011;1659;51.470;6.770;2022-08-04T06:51:39;7.73;;;4.20;;
3293;SDS011;1659;51.470;6.770;2022-08-04T06:54:08;7.60;;;4.83;;
3293;SDS011;1659;51.470;6.770;2022-08-04T06:56:35;13.50;;;4.77;;
3293;SDS011;1659;51.470;6.770;2022-08-04T06:59:05;8.17;;;5.47;;
3293;SDS011;1659;51.470;6.770;2022-08-04T07:01:34;8.20;;;4.63;;
3293;SDS011;1659;51.470;6.770;2022-08-04T07:04:02;8.97;;;5.03;;
3293;SDS011;1659;51.470;6.770;2022-08-04T07:06:30;7.20;;;4.37;;
3293;SDS011;1659;51.470;6.770;2022-08-04T07:08:56;12.07;;;4.77;;
3293;SDS011;1659;51.470;6.770;2022-08-04T07:11:26;12.33;;;4.97;;
3293;SDS011;1659;51.470;6.770;2022-08-04T07:13:52;5.93;;;5.20;;
3293;SDS011;1659;51.470;6.770;2022-08-04T07:16:20;8.30;;;4.67;;
3293;SDS011;1659;51.470;6.770;2022-08-04T07:18:48;8.20;;;5.27;;
3293;SDS011;1659;51.470;6.770;2022-08-04T07:21:18;6.80;;;4.70;;
3293;SDS011;1659;51.470;6.770;2022-08-04T07:23:47;5.57;;;4.93;;
3293;SDS011;1659;51.470;6.770;2022-08-04T07:26:14;5.17;;;4.67;;
3293;SDS011;1659;51.470;6.770;2022-08-04T07:28:44;5.90;;;4.50;;
3293;SDS011;1659;51.470;6.770;2022-08-04T07:31:13;6.43;;;4.80;;
3293;SDS011;1659;51.470;6.770;2022-08-04T07:33:42;7.60;;;4.03;;
3293;SDS011;1659;51.470;6.770;2022-08-04T07:36:10;11.13;;;5.93;;
3293;SDS011;1659;51.470;6.770;2022-08-04T07:38:38;5.03;;;4.60;;
3293;SDS011;1659;51.470;6.770;2022-08-04T07:41:05;6.97;;;4.80;;
3293;SDS011;1659;51.470;6.770;2022-08-04T07:43:32;6.80;;;4.60;;
3293;SDS011;1659;51.470;6.770;2022-08-04T07:46:02;8.73;;;5.20;;
3293;SDS011;1659;51.470;6.770;2022-08-04T07:48:29;7.80;;;4.83;;
3293;SDS011;1659;51.470;6.770;2022-08-04T07:50:56;13.27;;;4.63;;
3293;SDS011;1659;51.470;6.770;2022-08-04T07:53:23;4.63;;;4.20;;
3293;SDS011;1659;51.470;6.770;2022-08-04T07:55:52;6.90;;;4.90;;
3293;SDS011;1659;51.470;6.770;2022-08-04T07:58:19;5.27;;;4.37;;
3293;SDS011;1659;51.470;6.770;2022-08-04T08:00:46;5.97;;;4.43;;
3293;SDS011;1659;51.470;6.770;2022-08-04T08:03:14;6.83;;;4.70;;
3293;SDS011;1659;51.470;6.770;2022-08-04T08:05:41;5.80;;;4.90;;
3293;SDS011;1659;51.470;6.770;2022-08-04T08:08:08;8.70;;;4.80;;
3293;SDS011;1659;51.470;6.770;2022-08-04T08:10:35;13.77;;;5.80;;
3293;SDS011;1659;51.470;6.770;2022-08-04T08:13:03;9.27;;;6.00;;
3293;SDS011;1659;51.470;6.770;2022-08-04T08:15:30;9.73;;;6.23;;
3293;SDS011;1659;51.470;6.770;2022-08-04T08:17:57;13.17;;;6.20;;
3293;SDS011;1659;51.470;6.770;2022-08-04T08:20:26;7.70;;;5.43;;
3293;SDS011;1659;51.470;6.770;2022-08-04T08:22:54;9.77;;;6.07;;
3293;SDS011;1659;51.470;6.770;2022-08-04T08:25:20;13.00;;;5.67;;
3293;SDS011;1659;51.470;6.770;2022-08-04T08:27:47;9.80;;;5.70;;
3293;SDS011;1659;51.470;6.770;2022-08-04T08:30:14;15.47;;;6.50;;
3293;SDS011;1659;51.470;6.770;2022-08-04T08:32:40;9.37;;;6.33;;
3293;SDS011;1659;51.470;6.770;2022-08-04T08:35:07;18.30;;;7.40;;
3293;SDS011;1659;51.470;6.770;2022-08-04T08:37:36;10.87;;;7.10;;
3293;SDS011;1659;51.470;6.770;2022-08-04T08:40:11;19.03;;;8.77;;
3293;SDS011;1659;51.470;6.770;2022-08-04T08:46:07;14.40;;;8.10;;
3293;SDS011;1659;51.470;6.770;2022-08-04T08:48:57;11.37;;;6.40;;
3293;SDS011;1659;51.470;6.770;2022-08-04T08:57:27;6.03;;;4.00;;
3293;SDS011;1659;51.470;6.770;2022-08-04T09:00:06;5.80;;;4.60;;
3293;SDS011;1659;51.470;6.770;2022-08-04T09:02:57;5.10;;;4.60;;
3293;SDS011;1659;51.470;6.770;2022-08-04T09:05:39;4.73;;;4.27;;
3293;SDS011;1659;51.470;6.770;2022-08-04T09:08:38;12.73;;;5.00;;
3293;SDS011;1659;51.470;6.770;2022-08-04T09:11:23;8.60;;;5.13;;
3293;SDS011;1659;51.470;6.770;2022-08-04T09:13:55;5.07;;;4.57;;
3293;SDS011;1659;51.470;6.770;2022-08-04T09:16:28;5.73;;;4.83;;
3293;SDS011;1659;51.470;6.770;2022-08-04T09:19:01;15.53;;;5.00;;
3293;SDS011;1659;51.470;6.770;2022-08-04T09:21:36;7.53;;;5.43;;
3293;SDS011;1659;51.470;6.770;2022-08-04T09:24:07;10.40;;;5.37;;
3293;SDS011;1659;51.470;6.770;2022-08-04T09:26:43;8.33;;;4.93;;
3293;SDS011;1659;51.470;6.770;2022-08-04T09:29:14;11.30;;;5.63;;
3293;SDS011;1659;51.470;6.770;2022-08-04T09:31:48;11.97;;;4.53;;
3293;SDS011;1659;51.470;6.770;2022-08-04T09:34:22;9.13;;;4.63;;
3293;SDS011;1659;51.470;6.770;2022-08-04T09:37:01;10.70;;;4.37;;
3293;SDS011;1659;51.470;6.770;2022-08-04T09:39:39;8.03;;;3.87;;
3293;SDS011;1659;51.470;6.770;2022-08-04T09:42:16;6.03;;;3.80;;
3293;SDS011;1659;51.470;6.770;2022-08-04T09:44:47;3.90;;;3.60;;
3293;SDS011;1659;51.470;6.770;2022-08-04T09:47:23;3.53;;;3.10;;
3293;SDS011;1659;51.470;6.770;2022-08-04T09:49:57;6.57;;;3.87;;
3293;SDS011;1659;51.470;6.770;2022-08-04T09:52:38;5.07;;;3.47;;
3293;SDS011;1659;51.470;6.770;2022-08-04T09:55:11;8.37;;;3.00;;
3293;SDS011;1659;51.470;6.770;2022-08-04T09:57:52;7.20;;;4.07;;
3293;SDS011;1659;51.470;6.770;2022-08-04T10:00:26;5.03;;;3.00;;
3293;SDS011;1659;51.470;6.770;2022-08-04T10:02:59;4.80;;;3.23;;
3293;SDS011;1659;51.470;6.770;2022-08-04T10:05:32;3.77;;;2.77;;
3293;SDS011;1659;51.470;6.770;2022-08-04T10:08:14;6.30;;;3.60;;
3293;SDS011;1659;51.470;6.770;2022-08-04T10:10:50;5.20;;;3.60;;
3293;SDS011;1659;51.470;6.770;2022-08-04T10:13:28;10.00;;;3.73;;
3293;SDS011;1659;51.470;6.770;2022-08-04T10:16:10;7.73;;;3.67;;
3293;SDS011;1659;51.470;6.770;2022-08-04T10:18:54;4.70;;;3.33;;
3293;SDS011;1659;51.470;6.770;2022-08-04T10:21:29;3.60;;;3.20;;
3293;SDS011;1659;51.470;6.770;2022-08-04T10:24:10;8.93;;;3.23;;
3293;SDS011;1659;51.470;6.770;2022-08-04T10:26:51;4.40;;;2.80;;
3293;SDS011;1659;51.470;6.770;2022-08-04T10:29:25;3.07;;;2.87;;
3293;SDS011;1659;51.470;6.770;2022-08-04T10:32:03;4.93;;;2.40;;
3293;SDS011;1659;51.470;6.770;2022-08-04T10:34:35;3.60;;;3.27;;
3293;SDS011;1659;51.470;6.770;2022-08-04T10:37:11;3.60;;;3.30;;
3293;SDS011;1659;51.470;6.770;2022-08-04T10:39:45;11.03;;;3.20;;
3293;SDS011;1659;51.470;6.770;2022-08-04T10:42:34;3.70;;;3.17;;
3293;SDS011;1659;51.470;6.770;2022-08-04T10:45:09;3.60;;;2.87;;
3293;SDS011;1659;51.470;6.770;2022-08-04T10:47:42;3.33;;;2.93;;
3293;SDS011;1659;51.470;6.770;2022-08-04T10:50:16;2.83;;;2.33;;
3293;SDS011;1659;51.470;6.770;2022-08-04T10:52:51;6.10;;;3.03;;
3293;SDS011;1659;51.470;6.770;2022-08-04T10:55:24;7.53;;;3.77;;
3293;SDS011;1659;51.470;6.770;2022-08-04T10:57:58;9.40;;;3.00;;
3293;SDS011;1659;51.470;6.770;2022-08-04T11:00:28;4.30;;;3.60;;
3293;SDS011;1659;51.470;6.770;2022-08-04T11:03:00;4.20;;;2.67;;
3293;SDS011;1659;51.470;6.770;2022-08-04T11:05:34;4.83;;;3.60;;
3293;SDS011;1659;51.470;6.770;2022-08-04T11:08:08;4.20;;;3.10;;
3293;SDS011;1659;51.470;6.770;2022-08-04T11:10:39;7.20;;;3.90;;
3293;SDS011;1659;51.470;6.770;2022-08-04T11:13:09;5.70;;;3.47;;
3293;SDS011;1659;51.470;6.770;2022-08-04T11:15:40;5.90;;;3.53;;
3293;SDS011;1659;51.470;6.770;2022-08-04T11:18:13;5.30;;;3.30;;
3293;SDS011;1659;51.470;6.770;2022-08-04T11:20:49;3.97;;;2.90;;
3293;SDS011;1659;51.470;6.770;2022-08-04T11:23:22;3.83;;;3.20;;
3293;SDS011;1659;51.470;6.770;2022-08-04T11:25:55;7.23;;;3.50;;
3293;SDS011;1659;51.470;6.770;2022-08-04T11:28:27;7.60;;;3.73;;
3293;SDS011;1659;51.470;6.770;2022-08-04T11:31:04;4.33;;;3.20;;
3293;SDS011;1659;51.470;6.770;2022-08-04T11:33:35;6.33;;;3.33;;
3293;SDS011;1659;51.470;6.770;2022-08-04T11:36:12;6.50;;;3.50;;
3293;SDS011;1659;51.470;6.770;2022-08-04T11:38:45;6.20;;;3.10;;
3293;SDS011;1659;51.470;6.770;2022-08-04T11:41:17;3.47;;;3.20;;
3293;SDS011;1659;51.470;6.770;2022-08-04T11:43:50;6.00;;;3.10;;
3293;SDS011;1659;51.470;6.770;2022-08-04T11:46:24;4.30;;;2.77;;
3293;SDS011;1659;51.470;6.770;2022-08-04T11:48:57;5.73;;;3.37;;
3293;SDS011;1659;51.470;6.770;2022-08-04T11:51:28;8.73;;;3.27;;
3293;SDS011;1659;51.470;6.770;2022-08-04T11:53:57;5.07;;;3.53;;
3293;SDS011;1659;51.470;6.770;2022-08-04T11:56:25;3.20;;;2.90;;
3293;SDS011;1659;51.470;6.770;2022-08-04T11:58:53;5.13;;;3.97;;
3293;SDS011;1659;51.470;6.770;2022-08-04T12:01:24;5.03;;;4.00;;
3293;SDS011;1659;51.470;6.770;2022-08-04T12:04:01;6.60;;;3.40;;
3293;SDS011;1659;51.470;6.770;2022-08-04T12:06:31;7.10;;;3.07;;
3293;SDS011;1659;51.470;6.770;2022-08-04T12:09:07;7.40;;;4.40;;
3293;SDS011;1659;51.470;6.770;2022-08-04T12:11:45;5.13;;;3.70;;
3293;SDS011;1659;51.470;6.770;2022-08-04T12:14:25;8.20;;;4.27;;
3293;SDS011;1659;51.470;6.770;2022-08-04T12:16:58;9.20;;;4.77;;
3293;SDS011;1659;51.470;6.770;2022-08-04T12:19:28;9.33;;;5.00;;
3293;SDS011;1659;51.470;6.770;2022-08-04T12:21:58;16.07;;;5.10;;
3293;SDS011;1659;51.470;6.770;2022-08-04T12:24:30;7.10;;;4.83;;
3293;SDS011;1659;51.470;6.770;2022-08-04T12:27:03;9.27;;;4.77;;
3293;SDS011;1659;51.470;6.770;2022-08-04T12:29:36;8.80;;;5.67;;
3293;SDS011;1659;51.470;6.770;2022-08-04T12:32:12;6.87;;;4.67;;
3293;SDS011;1659;51.470;6.770;2022-08-04T12:34:45;9.30;;;4.73;;
3293;SDS011;1659;51.470;6.770;2022-08-04T12:37:17;14.43;;;5.60;;
3293;SDS011;1659;51.470;6.770;2022-08-04T12:39:52;8.60;;;5.40;;
3293;SDS011;1659;51.470;6.770;2022-08-04T12:42:26;8.60;;;4.33;;
3293;SDS011;1659;51.470;6.770;2022-08-04T12:44:59;8.20;;;5.43;;
3293;SDS011;1659;51.470;6.770;2022-08-04T12:47:33;10.60;;;6.80;;
3293;SDS011;1659;51.470;6.770;2022-08-04T12:50:02;12.63;;;5.30;;
3293;SDS011;1659;51.470;6.770;2022-08-04T12:52:32;7.73;;;4.47;;
3293;SDS011;1659;51.470;6.770;2022-08-04T12:55:06;4.73;;;4.33;;
3293;SDS011;1659;51.470;6.770;2022-08-04T12:57:34;15.70;;;4.97;;
3293;SDS011;1659;51.470;6.770;2022-08-04T13:00:02;8.43;;;4.27;;
3293;SDS011;1659;51.470;6.770;2022-08-04T13:02:30;9.90;;;6.17;;
3293;SDS011;1659;51.470;6.770;2022-08-04T13:05:05;11.27;;;7.50;;
3293;SDS011;1659;51.470;6.770;2022-08-04T13:07:34;16.10;;;9.40;;
3293;SDS011;1659;51.470;6.770;2022-08-04T13:10:05;21.70;;;9.57;;
3293;SDS011;1659;51.470;6.770;2022-08-04T13:12:37;18.37;;;10.00;;
3293;SDS011;1659;51.470;6.770;2022-08-04T13:15:08;9.27;;;5.53;;
3293;SDS011;1659;51.470;6.770;2022-08-04T13:17:42;11.30;;;6.07;;
3293;SDS011;1659;51.470;6.770;2022-08-04T13:20:14;9.97;;;5.10;;
3293;SDS011;1659;51.470;6.770;2022-08-04T13:22:42;7.73;;;3.90;;
3293;SDS011;1659;51.470;6.770;2022-08-04T13:25:09;7.93;;;4.47;;
3293;SDS011;1659;51.470;6.770;2022-08-04T13:27:36;4.60;;;3.73;;
3293;SDS011;1659;51.470;6.770;2022-08-04T13:30:05;6.27;;;5.47;;
3293;SDS011;1659;51.470;6.770;2022-08-04T13:32:32;10.13;;;6.33;;
3293;SDS011;1659;51.470;6.770;2022-08-04T13:35:02;9.63;;;6.00;;
3293;SDS011;1659;51.470;6.770;2022-08-04T13:37:30;6.50;;;4.93;;
3293;SDS011;1659;51.470;6.770;2022-08-04T13:39:59;5.27;;;4.40;;
3293;SDS011;1659;51.470;6.770;2022-08-04T13:42:28;11.93;;;4.90;;
3293;SDS011;1659;51.470;6.770;2022-08-04T13:44:57;5.70;;;4.23;;
3293;SDS011;1659;51.470;6.770;2022-08-04T13:47:26;5.63;;;4.13;;
3293;SDS011;1659;51.470;6.770;2022-08-04T13:50:05;5.30;;;4.30;;
3293;SDS011;1659;51.470;6.770;2022-08-04T13:52:35;9.50;;;4.30;;
3293;SDS011;1659;51.470;6.770;2022-08-04T13:55:02;6.03;;;4.07;;
3293;SDS011;1659;51.470;6.770;2022-08-04T13:57:32;6.07;;;4.10;;
3293;SDS011;1659;51.470;6.770;2022-08-04T14:00:08;4.20;;;3.47;;
3293;SDS011;1659;51.470;6.770;2022-08-04T14:02:37;7.00;;;3.80;;
3293;SDS011;1659;51.470;6.770;2022-08-04T14:05:13;5.47;;;3.43;;
3293;SDS011;1659;51.470;6.770;2022-08-04T14:07:44;6.33;;;3.67;;
3293;SDS011;1659;51.470;6.770;2022-08-04T14:10:12;4.10;;;3.43;;
3293;SDS011;1659;51.470;6.770;2022-08-04T14:12:43;6.23;;;3.40;;
3293;SDS011;1659;51.470;6.770;2022-08-04T14:18:14;4.57;;;3.27;;
3293;SDS011;1659;51.470;6.770;2022-08-04T14:20:58;5.80;;;3.13;;
3293;SDS011;1659;51.470;6.770;2022-08-04T14:23:26;4.53;;;3.23;;
3293;SDS011;1659;51.470;6.770;2022-08-04T14:25:53;7.83;;;5.03;;
3293;SDS011;1659;51.470;6.770;2022-08-04T14:28:26;8.57;;;5.23;;
3293;SDS011;1659;51.470;6.770;2022-08-04T14:31:07;6.50;;;4.40;;
3293;SDS011;1659;51.470;6.770;2022-08-04T14:33:36;8.43;;;4.37;;
3293;SDS011;1659;51.470;6.770;2022-08-04T14:36:05;6.70;;;3.93;;
3293;SDS011;1659;51.470;6.770;2022-08-04T14:38:43;8.53;;;4.53;;
3293;SDS011;1659;51.470;6.770;2022-08-04T14:41:18;5.37;;;4.00;;
3293;SDS011;1659;51.470;6.770;2022-08-04T14:43:47;7.20;;;4.17;;
3293;SDS011;1659;51.470;6.770;2022-08-04T14:46:15;5.77;;;3.97;;
3293;SDS011;1659;51.470;6.770;2022-08-04T14:51:34;7.40;;;3.83;;
3293;SDS011;1659;51.470;6.770;2022-08-04T14:54:02;7.43;;;4.10;;
3293;SDS011;1659;51.470;6.770;2022-08-04T14:56:29;5.37;;;4.00;;
3293;SDS011;1659;51.470;6.770;2022-08-04T14:59:01;8.00;;;5.10;;
3293;SDS011;1659;51.470;6.770;2022-08-04T15:01:29;7.13;;;5.20;;
3293;SDS011;1659;51.470;6.770;2022-08-04T15:03:56;7.10;;;4.33;;
3293;SDS011;1659;51.470;6.770;2022-08-04T15:06:27;3.97;;;3.67;;
3293;SDS011;1659;51.470;6.770;2022-08-04T15:08:57;4.30;;;3.77;;
3293;SDS011;1659;51.470;6.770;2022-08-04T15:11:26;12.43;;;5.77;;
3293;SDS011;1659;51.470;6.770;2022-08-04T15:13:53;14.60;;;6.30;;
3293;SDS011;1659;51.470;6.770;2022-08-04T15:16:24;10.30;;;4.50;;
3293;SDS011;1659;51.470;6.770;2022-08-04T15:18:52;6.50;;;4.10;;
3293;SDS011;1659;51.470;6.770;2022-08-04T15:21:19;5.73;;;4.27;;
3293;SDS011;1659;51.470;6.770;2022-08-04T15:23:46;8.10;;;3.90;;
3293;SDS011;1659;51.470;6.770;2022-08-04T15:26:16;4.23;;;3.53;;
3293;SDS011;1659;51.470;6.770;2022-08-04T15:28:49;5.77;;;3.70;;
3293;SDS011;1659;51.470;6.770;2022-08-04T15:31:19;4.40;;;3.50;;
3293;SDS011;1659;51.470;6.770;2022-08-04T15:33:48;8.10;;;3.50;;
3293;SDS011;1659;51.470;6.770;2022-08-04T15:36:20;6.23;;;3.97;;
3293;SDS011;1659;51.470;6.770;2022-08-04T15:38:56;5.63;;;3.70;;
3293;SDS011;1659;51.470;6.770;2022-08-04T15:41:34;3.87;;;3.43;;
3293;SDS011;1659;51.470;6.770;2022-08-04T15:44:25;11.13;;;4.73;;
3293;SDS011;1659;51.470;6.770;2022-08-04T15:47:12;8.20;;;4.60;;
3293;SDS011;1659;51.470;6.770;2022-08-04T15:49:40;4.03;;;3.20;;
3293;SDS011;1659;51.470;6.770;2022-08-04T15:52:08;5.43;;;4.10;;
3293;SDS011;1659;51.470;6.770;2022-08-04T15:54:36;7.07;;;4.47;;
3293;SDS011;1659;51.470;6.770;2022-08-04T15:57:05;13.40;;;8.77;;
3293;SDS011;1659;51.470;6.770;2022-08-04T16:02:34;3.87;;;3.50;;
3293;SDS011;1659;51.470;6.770;2022-08-04T16:05:31;3.57;;;3.23;;
3293;SDS011;1659;51.470;6.770;2022-08-04T16:08:08;8.13;;;3.87;;
3293;SDS011;1659;51.470;6.770;2022-08-04T16:10:40;6.37;;;3.80;;
3293;SDS011;1659;51.470;6.770;2022-08-04T16:13:10;6.90;;;3.97;;
3293;SDS011;1659;51.470;6.770;2022-08-04T16:15:39;5.60;;;4.77;;
3293;SDS011;1659;51.470;6.770;2022-08-04T16:18:10;7.40;;;4.77;;
3293;SDS011;1659;51.470;6.770;2022-08-04T16:20:38;8.40;;;4.83;;
3293;SDS011;1659;51.470;6.770;2022-08-04T16:29:25;6.63;;;4.30;;
3293;SDS011;1659;51.470;6.770;2022-08-04T16:34:41;9.67;;;5.17;;
3293;SDS011;1659;51.470;6.770;2022-08-04T16:37:12;4.60;;;3.70;;
3293;SDS011;1659;51.470;6.770;2022-08-04T16:39:39;10.60;;;6.60;;
3293;SDS011;1659;51.470;6.770;2022-08-04T16:45:10;12.70;;;7.20;;